sensor_id;sensor_type;location;lat;lon;timestamp;P1;durP1;ratioP1;P2;durP2;ratioP2
32146;SDS011;32190;49.112;8.598;2024-02-15T00:00:04;0.80;;;0.77;;
32146;SDS011;32190;49.112;8.598;2024-02-15T00:05:56;1.60;;;0.50;;
32146;SDS011;32190;49.112;8.598;2024-02-15T00:11:46;0.68;;;0.60;;
32146;SDS011;32190;49.112;8.598;2024-02-15T00:17:37;0.63;;;0.55;;
32146;SDS011;32190;49.112;8.598;2024-02-15T00:23:27;0.90;;;0.50;;
32146;SDS011;32190;49.112;8.598;2024-02-15T00:29:18;0.50;;;0.50;;
32146;SDS011;32190;49.112;8.598;2024-02-15T00:35:08;0.68;;;0.68;;
32146;SDS011;32190;49.112;8.598;2024-02-15T00:40:59;0.47;;;0.47;;
32146;SDS011;32190;49.112;8.598;2024-02-15T00:46:50;0.50;;;0.50;;
32146;SDS011;32190;49.112;8.598;2024-02-15T00:52:40;0.75;;;0.65;;
32146;SDS011;32190;49.112;8.598;2024-02-15T00:58:31;0.43;;;0.43;;
32146;SDS011;32190;49.112;8.598;2024-02-15T01:04:21;1.10;;;0.55;;
32146;SDS011;32190;49.112;8.598;2024-02-15T01:10:12;0.60;;;0.60;;
32146;SDS011;32190;49.112;8.598;2024-02-15T01:16:04;0.55;;;0.55;;
32146;SDS011;32190;49.112;8.598;2024-02-15T01:21:54;0.70;;;0.70;;
32146;SDS011;32190;49.112;8.598;2024-02-15T01:27:45;2.25;;;0.50;;
32146;SDS011;32190;49.112;8.598;2024-02-15T01:33:38;0.50;;;0.50;;
32146;SDS011;32190;49.112;8.598;2024-02-15T01:39:31;1.08;;;0.70;;
32146;SDS011;32190;49.112;8.598;2024-02-15T01:45:21;0.52;;;0.45;;
32146;SDS011;32190;49.112;8.598;2024-02-15T01:51:12;1.23;;;0.40;;
32146;SDS011;32190;49.112;8.598;2024-02-15T01:57:04;0.50;;;0.50;;
32146;SDS011;32190;49.112;8.598;2024-02-15T02:02:55;0.70;;;0.65;;
32146;SDS011;32190;49.112;8.598;2024-02-15T02:08:51;0.40;;;0.40;;
32146;SDS011;32190;49.112;8.598;2024-02-15T02:14:42;0.50;;;0.50;;
32146;SDS011;32190;49.112;8.598;2024-02-15T02:20:32;0.52;;;0.52;;
32146;SDS011;32190;49.112;8.598;2024-02-15T02:26:24;0.65;;;0.60;;
32146;SDS011;32190;49.112;8.598;2024-02-15T02:32:15;1.20;;;0.60;;
32146;SDS011;32190;49.112;8.598;2024-02-15T02:38:06;0.50;;;0.50;;
32146;SDS011;32190;49.112;8.598;2024-02-15T02:43:57;0.68;;;0.60;;
32146;SDS011;32190;49.112;8.598;2024-02-15T02:49:48;0.95;;;0.65;;
32146;SDS011;32190;49.112;8.598;2024-02-15T02:55:40;2.40;;;0.93;;
32146;SDS011;32190;49.112;8.598;2024-02-15T03:01:31;0.65;;;0.63;;
32146;SDS011;32190;49.112;8.598;2024-02-15T03:07:22;0.50;;;0.50;;
32146;SDS011;32190;49.112;8.598;2024-02-15T03:13:13;1.17;;;0.50;;
32146;SDS011;32190;49.112;8.598;2024-02-15T03:19:04;0.57;;;0.52;;
32146;SDS011;32190;49.112;8.598;2024-02-15T03:24:55;1.83;;;0.73;;
32146;SDS011;32190;49.112;8.598;2024-02-15T03:30:45;0.88;;;0.63;;
32146;SDS011;32190;49.112;8.598;2024-02-15T03:36:36;0.50;;;0.50;;
32146;SDS011;32190;49.112;8.598;2024-02-15T03:42:27;1.95;;;0.70;;
32146;SDS011;32190;49.112;8.598;2024-02-15T03:48:18;1.33;;;0.70;;
32146;SDS011;32190;49.112;8.598;2024-02-15T03:54:08;1.13;;;0.57;;
32146;SDS011;32190;49.112;8.598;2024-02-15T03:59:59;1.60;;;0.63;;
32146;SDS011;32190;49.112;8.598;2024-02-15T04:05:50;0.95;;;0.80;;
32146;SDS011;32190;49.112;8.598;2024-02-15T04:11:41;0.82;;;0.60;;
32146;SDS011;32190;49.112;8.598;2024-02-15T04:17:31;0.52;;;0.52;;
32146;SDS011;32190;49.112;8.598;2024-02-15T04:23:24;0.70;;;0.70;;
32146;SDS011;32190;49.112;8.598;2024-02-15T04:29:15;0.80;;;0.80;;
32146;SDS011;32190;49.112;8.598;2024-02-15T04:35:06;1.40;;;0.90;;
32146;SDS011;32190;49.112;8.598;2024-02-15T04:40:57;1.95;;;0.60;;
32146;SDS011;32190;49.112;8.598;2024-02-15T04:46:50;2.22;;;0.60;;
32146;SDS011;32190;49.112;8.598;2024-02-15T04:52:40;0.70;;;0.52;;
32146;SDS011;32190;49.112;8.598;2024-02-15T04:58:35;0.50;;;0.50;;
32146;SDS011;32190;49.112;8.598;2024-02-15T05:04:26;0.57;;;0.50;;
32146;SDS011;32190;49.112;8.598;2024-02-15T05:10:17;0.70;;;0.60;;
32146;SDS011;32190;49.112;8.598;2024-02-15T05:16:07;1.00;;;0.40;;
32146;SDS011;32190;49.112;8.598;2024-02-15T05:21:58;0.57;;;0.50;;
32146;SDS011;32190;49.112;8.598;2024-02-15T05:27:51;0.65;;;0.40;;
32146;SDS011;32190;49.112;8.598;2024-02-15T05:33:43;0.38;;;0.38;;
32146;SDS011;32190;49.112;8.598;2024-02-15T05:39:34;0.70;;;0.45;;
32146;SDS011;32190;49.112;8.598;2024-02-15T05:51:15;0.40;;;0.40;;
32146;SDS011;32190;49.112;8.598;2024-02-15T05:57:06;0.68;;;0.40;;
32146;SDS011;32190;49.112;8.598;2024-02-15T06:02:57;0.50;;;0.50;;
32146;SDS011;32190;49.112;8.598;2024-02-15T06:08:47;0.47;;;0.47;;
32146;SDS011;32190;49.112;8.598;2024-02-15T06:14:39;0.50;;;0.50;;
32146;SDS011;32190;49.112;8.598;2024-02-15T06:20:29;0.40;;;0.40;;
32146;SDS011;32190;49.112;8.598;2024-02-15T06:26:20;0.70;;;0.50;;
32146;SDS011;32190;49.112;8.598;2024-02-15T06:32:11;0.80;;;0.40;;
32146;SDS011;32190;49.112;8.598;2024-02-15T06:38:20;0.55;;;0.45;;
32146;SDS011;32190;49.112;8.598;2024-02-15T06:44:29;0.90;;;0.50;;
32146;SDS011;32190;49.112;8.598;2024-02-15T06:50:20;0.50;;;0.50;;
32146;SDS011;32190;49.112;8.598;2024-02-15T06:56:11;0.77;;;0.40;;
32146;SDS011;32190;49.112;8.598;2024-02-15T07:02:02;0.30;;;0.30;;
32146;SDS011;32190;49.112;8.598;2024-02-15T07:07:55;0.30;;;0.30;;
32146;SDS011;32190;49.112;8.598;2024-02-15T07:13:46;0.35;;;0.30;;
32146;SDS011;32190;49.112;8.598;2024-02-15T07:19:37;1.65;;;0.60;;
32146;SDS011;32190;49.112;8.598;2024-02-15T07:25:31;0.32;;;0.32;;
32146;SDS011;32190;49.112;8.598;2024-02-15T07:31:21;0.52;;;0.50;;
32146;SDS011;32190;49.112;8.598;2024-02-15T07:37:13;0.40;;;0.40;;
32146;SDS011;32190;49.112;8.598;2024-02-15T07:43:05;1.35;;;0.43;;
32146;SDS011;32190;49.112;8.598;2024-02-15T07:48:56;0.65;;;0.50;;
32146;SDS011;32190;49.112;8.598;2024-02-15T07:54:47;0.40;;;0.40;;
32146;SDS011;32190;49.112;8.598;2024-02-15T08:00:37;1.17;;;0.50;;
32146;SDS011;32190;49.112;8.598;2024-02-15T08:06:28;0.82;;;0.45;;
32146;SDS011;32190;49.112;8.598;2024-02-15T08:12:22;1.55;;;0.50;;
32146;SDS011;32190;49.112;8.598;2024-02-15T08:18:12;0.60;;;0.30;;
32146;SDS011;32190;49.112;8.598;2024-02-15T08:24:03;0.40;;;0.40;;
32146;SDS011;32190;49.112;8.598;2024-02-15T08:29:55;0.88;;;0.50;;
32146;SDS011;32190;49.112;8.598;2024-02-15T08:35:46;0.70;;;0.40;;
32146;SDS011;32190;49.112;8.598;2024-02-15T08:41:36;0.95;;;0.50;;
32146;SDS011;32190;49.112;8.598;2024-02-15T08:47:30;2.17;;;0.68;;
32146;SDS011;32190;49.112;8.598;2024-02-15T08:53:20;0.80;;;0.50;;
32146;SDS011;32190;49.112;8.598;2024-02-15T08:59:11;0.47;;;0.47;;
32146;SDS011;32190;49.112;8.598;2024-02-15T09:05:05;0.68;;;0.57;;
32146;SDS011;32190;49.112;8.598;2024-02-15T09:10:56;1.88;;;0.50;;
32146;SDS011;32190;49.112;8.598;2024-02-15T09:16:48;0.65;;;0.40;;
32146;SDS011;32190;49.112;8.598;2024-02-15T09:22:38;3.70;;;0.80;;
32146;SDS011;32190;49.112;8.598;2024-02-15T09:28:29;0.73;;;0.50;;
32146;SDS011;32190;49.112;8.598;2024-02-15T09:34:21;0.82;;;0.60;;
32146;SDS011;32190;49.112;8.598;2024-02-15T09:40:12;0.68;;;0.68;;
32146;SDS011;32190;49.112;8.598;2024-02-15T09:46:03;1.40;;;1.00;;
32146;SDS011;32190;49.112;8.598;2024-02-15T09:51:54;1.95;;;0.73;;
32146;SDS011;32190;49.112;8.598;2024-02-15T09:57:46;0.55;;;0.40;;
32146;SDS011;32190;49.112;8.598;2024-02-15T10:03:37;1.42;;;0.70;;
32146;SDS011;32190;49.112;8.598;2024-02-15T10:09:30;1.73;;;0.90;;
32146;SDS011;32190;49.112;8.598;2024-02-15T10:15:33;1.13;;;0.75;;
32146;SDS011;32190;49.112;8.598;2024-02-15T10:21:25;1.98;;;0.50;;
32146;SDS011;32190;49.112;8.598;2024-02-15T10:27:19;0.40;;;0.40;;
32146;SDS011;32190;49.112;8.598;2024-02-15T10:33:21;1.88;;;0.50;;
32146;SDS011;32190;49.112;8.598;2024-02-15T10:39:19;0.60;;;0.60;;
32146;SDS011;32190;49.112;8.598;2024-02-15T10:45:10;0.57;;;0.40;;
32146;SDS011;32190;49.112;8.598;2024-02-15T10:51:02;0.93;;;0.45;;
32146;SDS011;32190;49.112;8.598;2024-02-15T10:56:58;0.73;;;0.60;;
32146;SDS011;32190;49.112;8.598;2024-02-15T11:02:58;0.30;;;0.30;;
32146;SDS011;32190;49.112;8.598;2024-02-15T11:08:57;0.38;;;0.30;;
32146;SDS011;32190;49.112;8.598;2024-02-15T11:14:49;0.63;;;0.57;;
32146;SDS011;32190;49.112;8.598;2024-02-15T11:26:47;0.88;;;0.40;;
32146;SDS011;32190;49.112;8.598;2024-02-15T11:32:47;0.40;;;0.40;;
32146;SDS011;32190;49.112;8.598;2024-02-15T11:38:43;1.00;;;0.40;;
32146;SDS011;32190;49.112;8.598;2024-02-15T11:44:34;2.63;;;0.50;;
32146;SDS011;32190;49.112;8.598;2024-02-15T11:50:26;0.93;;;0.30;;
32146;SDS011;32190;49.112;8.598;2024-02-15T11:56:18;0.38;;;0.38;;
32146;SDS011;32190;49.112;8.598;2024-02-15T12:02:09;0.80;;;0.35;;
32146;SDS011;32190;49.112;8.598;2024-02-15T12:08:18;0.47;;;0.40;;
32146;SDS011;32190;49.112;8.598;2024-02-15T12:14:27;1.42;;;0.30;;
32146;SDS011;32190;49.112;8.598;2024-02-15T12:20:36;0.30;;;0.30;;
32146;SDS011;32190;49.112;8.598;2024-02-15T12:26:27;0.52;;;0.50;;
32146;SDS011;32190;49.112;8.598;2024-02-15T12:32:27;0.93;;;0.52;;
32146;SDS011;32190;49.112;8.598;2024-02-15T12:38:18;0.75;;;0.40;;
32146;SDS011;32190;49.112;8.598;2024-02-15T12:44:09;1.33;;;0.50;;
32146;SDS011;32190;49.112;8.598;2024-02-15T12:50:12;0.35;;;0.35;;
32146;SDS011;32190;49.112;8.598;2024-02-15T12:56:07;0.65;;;0.20;;
32146;SDS011;32190;49.112;8.598;2024-02-15T13:01:59;0.32;;;0.32;;
32146;SDS011;32190;49.112;8.598;2024-02-15T13:07:50;0.40;;;0.30;;
32146;SDS011;32190;49.112;8.598;2024-02-15T13:13:41;0.30;;;0.30;;
32146;SDS011;32190;49.112;8.598;2024-02-15T13:19:32;0.85;;;0.30;;
32146;SDS011;32190;49.112;8.598;2024-02-15T13:25:26;0.50;;;0.20;;
32146;SDS011;32190;49.112;8.598;2024-02-15T13:31:16;0.70;;;0.40;;
32146;SDS011;32190;49.112;8.598;2024-02-15T13:37:07;1.08;;;0.43;;
32146;SDS011;32190;49.112;8.598;2024-02-15T13:42:57;0.40;;;0.38;;
32146;SDS011;32190;49.112;8.598;2024-02-15T13:48:49;0.52;;;0.30;;
32146;SDS011;32190;49.112;8.598;2024-02-15T13:54:39;0.32;;;0.22;;
32146;SDS011;32190;49.112;8.598;2024-02-15T14:00:31;0.73;;;0.35;;
32146;SDS011;32190;49.112;8.598;2024-02-15T14:06:26;1.52;;;0.40;;
32146;SDS011;32190;49.112;8.598;2024-02-15T14:12:18;0.40;;;0.40;;
32146;SDS011;32190;49.112;8.598;2024-02-15T14:18:10;0.47;;;0.30;;
32146;SDS011;32190;49.112;8.598;2024-02-15T14:24:04;0.30;;;0.30;;
32146;SDS011;32190;49.112;8.598;2024-02-15T14:29:56;1.70;;;0.40;;
32146;SDS011;32190;49.112;8.598;2024-02-15T14:36:17;0.60;;;0.32;;
32146;SDS011;32190;49.112;8.598;2024-02-15T14:42:07;0.40;;;0.30;;
32146;SDS011;32190;49.112;8.598;2024-02-15T14:47:58;0.55;;;0.30;;
32146;SDS011;32190;49.112;8.598;2024-02-15T14:53:49;0.55;;;0.40;;
32146;SDS011;32190;49.112;8.598;2024-02-15T14:59:39;0.82;;;0.55;;
32146;SDS011;32190;49.112;8.598;2024-02-15T15:05:31;0.30;;;0.30;;
32146;SDS011;32190;49.112;8.598;2024-02-15T15:11:40;0.75;;;0.30;;
32146;SDS011;32190;49.112;8.598;2024-02-15T15:17:49;0.30;;;0.30;;
32146;SDS011;32190;49.112;8.598;2024-02-15T15:23:41;0.20;;;0.20;;
32146;SDS011;32190;49.112;8.598;2024-02-15T15:29:32;1.90;;;0.40;;
32146;SDS011;32190;49.112;8.598;2024-02-15T15:35:25;1.63;;;0.45;;
32146;SDS011;32190;49.112;8.598;2024-02-15T15:41:17;0.43;;;0.30;;
32146;SDS011;32190;49.112;8.598;2024-02-15T15:47:08;1.23;;;0.38;;
32146;SDS011;32190;49.112;8.598;2024-02-15T15:52:59;0.30;;;0.30;;
32146;SDS011;32190;49.112;8.598;2024-02-15T15:58:50;0.50;;;0.50;;
32146;SDS011;32190;49.112;8.598;2024-02-15T16:04:44;0.65;;;0.50;;
32146;SDS011;32190;49.112;8.598;2024-02-15T16:10:38;0.30;;;0.30;;
32146;SDS011;32190;49.112;8.598;2024-02-15T16:16:30;0.30;;;0.30;;
32146;SDS011;32190;49.112;8.598;2024-02-15T16:22:21;0.63;;;0.50;;
32146;SDS011;32190;49.112;8.598;2024-02-15T16:28:11;0.45;;;0.30;;
32146;SDS011;32190;49.112;8.598;2024-02-15T16:34:02;0.32;;;0.32;;
32146;SDS011;32190;49.112;8.598;2024-02-15T16:39:53;0.20;;;0.20;;
32146;SDS011;32190;49.112;8.598;2024-02-15T16:45:43;0.30;;;0.30;;
32146;SDS011;32190;49.112;8.598;2024-02-15T16:51:34;0.32;;;0.32;;
32146;SDS011;32190;49.112;8.598;2024-02-15T16:57:25;0.30;;;0.30;;
32146;SDS011;32190;49.112;8.598;2024-02-15T17:03:15;0.30;;;0.30;;
32146;SDS011;32190;49.112;8.598;2024-02-15T17:09:06;1.52;;;0.40;;
32146;SDS011;32190;49.112;8.598;2024-02-15T17:14:57;0.50;;;0.50;;
32146;SDS011;32190;49.112;8.598;2024-02-15T17:20:47;0.50;;;0.50;;
32146;SDS011;32190;49.112;8.598;2024-02-15T17:26:43;0.50;;;0.50;;
32146;SDS011;32190;49.112;8.598;2024-02-15T17:32:34;0.38;;;0.32;;
32146;SDS011;32190;49.112;8.598;2024-02-15T17:38:25;0.47;;;0.47;;
32146;SDS011;32190;49.112;8.598;2024-02-15T17:44:15;2.15;;;0.55;;
32146;SDS011;32190;49.112;8.598;2024-02-15T17:50:08;1.23;;;0.52;;
32146;SDS011;32190;49.112;8.598;2024-02-15T17:56:00;1.58;;;0.60;;
32146;SDS011;32190;49.112;8.598;2024-02-15T18:01:50;2.00;;;0.50;;
32146;SDS011;32190;49.112;8.598;2024-02-15T18:07:42;0.40;;;0.40;;
32146;SDS011;32190;49.112;8.598;2024-02-15T18:13:33;1.40;;;0.60;;
32146;SDS011;32190;49.112;8.598;2024-02-15T18:19:24;0.52;;;0.50;;
32146;SDS011;32190;49.112;8.598;2024-02-15T18:25:15;0.40;;;0.40;;
32146;SDS011;32190;49.112;8.598;2024-02-15T18:31:06;0.47;;;0.43;;
32146;SDS011;32190;49.112;8.598;2024-02-15T18:36:59;0.90;;;0.77;;
32146;SDS011;32190;49.112;8.598;2024-02-15T18:42:50;0.50;;;0.50;;
32146;SDS011;32190;49.112;8.598;2024-02-15T18:48:41;1.02;;;0.60;;
32146;SDS011;32190;49.112;8.598;2024-02-15T18:54:32;1.58;;;0.57;;
32146;SDS011;32190;49.112;8.598;2024-02-15T19:00:22;0.60;;;0.60;;
32146;SDS011;32190;49.112;8.598;2024-02-15T19:06:14;1.17;;;1.08;;
32146;SDS011;32190;49.112;8.598;2024-02-15T19:12:05;1.27;;;0.63;;
32146;SDS011;32190;49.112;8.598;2024-02-15T19:18:00;0.40;;;0.40;;
32146;SDS011;32190;49.112;8.598;2024-02-15T19:23:50;1.30;;;0.63;;
32146;SDS011;32190;49.112;8.598;2024-02-15T19:29:41;1.38;;;0.80;;
32146;SDS011;32190;49.112;8.598;2024-02-15T19:35:32;0.85;;;0.60;;
32146;SDS011;32190;49.112;8.598;2024-02-15T19:41:22;0.60;;;0.60;;
32146;SDS011;32190;49.112;8.598;2024-02-15T19:47:13;0.63;;;0.60;;
32146;SDS011;32190;49.112;8.598;2024-02-15T19:53:08;0.70;;;0.70;;
32146;SDS011;32190;49.112;8.598;2024-02-15T19:58:59;1.10;;;0.90;;
32146;SDS011;32190;49.112;8.598;2024-02-15T20:04:49;1.75;;;0.68;;
32146;SDS011;32190;49.112;8.598;2024-02-15T20:10:40;0.98;;;0.70;;
32146;SDS011;32190;49.112;8.598;2024-02-15T20:16:31;1.58;;;0.80;;
32146;SDS011;32190;49.112;8.598;2024-02-15T20:22:22;1.38;;;1.27;;
32146;SDS011;32190;49.112;8.598;2024-02-15T20:28:13;1.05;;;0.90;;
32146;SDS011;32190;49.112;8.598;2024-02-15T20:34:03;0.90;;;0.70;;
32146;SDS011;32190;49.112;8.598;2024-02-15T20:39:55;1.25;;;0.95;;
32146;SDS011;32190;49.112;8.598;2024-02-15T20:45:45;1.25;;;0.98;;
32146;SDS011;32190;49.112;8.598;2024-02-15T20:51:36;1.23;;;1.00;;
32146;SDS011;32190;49.112;8.598;2024-02-15T20:57:27;0.77;;;0.77;;
32146;SDS011;32190;49.112;8.598;2024-02-15T21:03:18;1.10;;;0.70;;
32146;SDS011;32190;49.112;8.598;2024-02-15T21:09:09;0.90;;;0.85;;
32146;SDS011;32190;49.112;8.598;2024-02-15T21:15:08;0.90;;;0.90;;
32146;SDS011;32190;49.112;8.598;2024-02-15T21:21:00;0.98;;;0.80;;
32146;SDS011;32190;49.112;8.598;2024-02-15T21:26:50;0.73;;;0.73;;
32146;SDS011;32190;49.112;8.598;2024-02-15T21:32:41;0.85;;;0.85;;
32146;SDS011;32190;49.112;8.598;2024-02-15T21:38:33;1.35;;;0.90;;
32146;SDS011;32190;49.112;8.598;2024-02-15T21:44:24;1.10;;;1.00;;
32146;SDS011;32190;49.112;8.598;2024-02-15T21:50:15;0.80;;;0.80;;
32146;SDS011;32190;49.112;8.598;2024-02-15T21:56:05;1.83;;;0.98;;
32146;SDS011;32190;49.112;8.598;2024-02-15T22:01:56;0.95;;;0.93;;
32146;SDS011;32190;49.112;8.598;2024-02-15T22:07:46;8.25;;;3.28;;
32146;SDS011;32190;49.112;8.598;2024-02-15T22:13:38;4.72;;;2.78;;
32146;SDS011;32190;49.112;8.598;2024-02-15T22:19:29;3.92;;;1.98;;
32146;SDS011;32190;49.112;8.598;2024-02-15T22:25:20;2.30;;;1.95;;
32146;SDS011;32190;49.112;8.598;2024-02-15T22:31:15;1.70;;;1.00;;
32146;SDS011;32190;49.112;8.598;2024-02-15T22:37:07;1.15;;;1.00;;
32146;SDS011;32190;49.112;8.598;2024-02-15T22:42:58;2.67;;;1.33;;
32146;SDS011;32190;49.112;8.598;2024-02-15T22:48:48;1.35;;;1.25;;
32146;SDS011;32190;49.112;8.598;2024-02-15T22:54:39;1.40;;;1.30;;
32146;SDS011;32190;49.112;8.598;2024-02-15T23:00:36;1.77;;;1.20;;
32146;SDS011;32190;49.112;8.598;2024-02-15T23:06:27;1.45;;;1.27;;
32146;SDS011;32190;49.112;8.598;2024-02-15T23:12:17;2.08;;;0.90;;
32146;SDS011;32190;49.112;8.598;2024-02-15T23:18:08;2.22;;;1.25;;
32146;SDS011;32190;49.112;8.598;2024-02-15T23:23:58;1.25;;;1.15;;
32146;SDS011;32190;49.112;8.598;2024-02-15T23:29:49;0.93;;;0.93;;
32146;SDS011;32190;49.112;8.598;2024-02-15T23:35:41;0.95;;;0.80;;
32146;SDS011;32190;49.112;8.598;2024-02-15T23:41:51;1.35;;;1.15;;
32146;SDS011;32190;49.112;8.598;2024-02-15T23:47:42;1.33;;;0.88;;
32146;SDS011;32190;49.112;8.598;2024-02-15T23:53:32;1.13;;;0.85;;
32146;SDS011;32190;49.112;8.598;2024-02-15T23:59:23;0.98;;;0.93;;
